sensor_id;sensor_type;location;lat;lon;timestamp;P1;durP1;ratioP1;P2;durP2;ratioP2
70866;SDS011;58487;53.474;49.470;2023-03-23T00:01:26;25.45;;;10.18;;
70866;SDS011;58487;53.474;49.470;2023-03-23T00:03:55;27.38;;;10.50;;
70866;SDS011;58487;53.474;49.470;2023-03-23T00:06:23;27.38;;;10.18;;
70866;SDS011;58487;53.474;49.470;2023-03-23T00:08:51;26.30;;;9.63;;
70866;SDS011;58487;53.474;49.470;2023-03-23T00:11:23;29.13;;;11.27;;
70866;SDS011;58487;53.474;49.470;2023-03-23T00:13:51;28.98;;;11.50;;
70866;SDS011;58487;53.474;49.470;2023-03-23T00:16:19;27.55;;;11.60;;
70866;SDS011;58487;53.474;49.470;2023-03-23T00:18:56;27.08;;;10.95;;
70866;SDS011;58487;53.474;49.470;2023-03-23T00:21:28;24.42;;;9.10;;
70866;SDS011;58487;53.474;49.470;2023-03-23T00:26:38;20.80;;;8.20;;
70866;SDS011;58487;53.474;49.470;2023-03-23T00:29:07;23.20;;;7.90;;
70866;SDS011;58487;53.474;49.470;2023-03-23T00:31:42;22.75;;;8.55;;
70866;SDS011;58487;53.474;49.470;2023-03-23T00:34:13;22.17;;;7.97;;
70866;SDS011;58487;53.474;49.470;2023-03-23T00:36:44;19.70;;;7.87;;
70866;SDS011;58487;53.474;49.470;2023-03-23T00:39:15;21.52;;;7.63;;
70866;SDS011;58487;53.474;49.470;2023-03-23T00:41:42;19.33;;;7.80;;
70866;SDS011;58487;53.474;49.470;2023-03-23T00:44:12;22.00;;;8.55;;
70866;SDS011;58487;53.474;49.470;2023-03-23T00:46:47;19.65;;;8.32;;
70866;SDS011;58487;53.474;49.470;2023-03-23T00:49:16;18.87;;;8.30;;
70866;SDS011;58487;53.474;49.470;2023-03-23T00:51:44;21.52;;;8.60;;
70866;SDS011;58487;53.474;49.470;2023-03-23T00:54:10;25.70;;;8.82;;
70866;SDS011;58487;53.474;49.470;2023-03-23T00:56:38;24.17;;;9.05;;
70866;SDS011;58487;53.474;49.470;2023-03-23T00:59:05;20.15;;;7.95;;
70866;SDS011;58487;53.474;49.470;2023-03-23T01:01:31;16.00;;;6.63;;
70866;SDS011;58487;53.474;49.470;2023-03-23T01:03:58;15.75;;;7.50;;
70866;SDS011;58487;53.474;49.470;2023-03-23T01:06:29;16.85;;;6.93;;
70866;SDS011;58487;53.474;49.470;2023-03-23T01:08:57;19.60;;;7.68;;
70866;SDS011;58487;53.474;49.470;2023-03-23T01:11:23;16.88;;;6.95;;
70866;SDS011;58487;53.474;49.470;2023-03-23T01:13:50;15.30;;;6.07;;
70866;SDS011;58487;53.474;49.470;2023-03-23T01:16:16;13.35;;;5.50;;
70866;SDS011;58487;53.474;49.470;2023-03-23T01:18:42;12.88;;;5.68;;
70866;SDS011;58487;53.474;49.470;2023-03-23T01:21:10;13.38;;;5.50;;
70866;SDS011;58487;53.474;49.470;2023-03-23T01:23:38;15.33;;;5.93;;
70866;SDS011;58487;53.474;49.470;2023-03-23T01:26:12;16.10;;;5.93;;
70866;SDS011;58487;53.474;49.470;2023-03-23T01:28:43;15.80;;;6.53;;
70866;SDS011;58487;53.474;49.470;2023-03-23T01:31:11;18.02;;;6.47;;
70866;SDS011;58487;53.474;49.470;2023-03-23T01:33:39;15.80;;;6.57;;
70866;SDS011;58487;53.474;49.470;2023-03-23T01:36:14;13.60;;;5.83;;
70866;SDS011;58487;53.474;49.470;2023-03-23T01:38:42;15.45;;;5.80;;
70866;SDS011;58487;53.474;49.470;2023-03-23T01:41:09;13.65;;;6.22;;
70866;SDS011;58487;53.474;49.470;2023-03-23T01:43:36;15.30;;;6.28;;
70866;SDS011;58487;53.474;49.470;2023-03-23T01:46:18;16.45;;;6.10;;
70866;SDS011;58487;53.474;49.470;2023-03-23T01:48:44;16.37;;;6.30;;
70866;SDS011;58487;53.474;49.470;2023-03-23T01:51:14;14.00;;;6.53;;
70866;SDS011;58487;53.474;49.470;2023-03-23T01:53:45;17.10;;;7.15;;
70866;SDS011;58487;53.474;49.470;2023-03-23T01:56:16;15.63;;;6.50;;
70866;SDS011;58487;53.474;49.470;2023-03-23T01:58:45;14.55;;;6.32;;
70866;SDS011;58487;53.474;49.470;2023-03-23T02:01:13;16.40;;;7.07;;
70866;SDS011;58487;53.474;49.470;2023-03-23T02:03:41;15.68;;;6.80;;
70866;SDS011;58487;53.474;49.470;2023-03-23T02:06:10;18.45;;;7.95;;
70866;SDS011;58487;53.474;49.470;2023-03-23T02:08:37;20.13;;;8.23;;
70866;SDS011;58487;53.474;49.470;2023-03-23T02:11:13;20.30;;;7.88;;
70866;SDS011;58487;53.474;49.470;2023-03-23T02:13:40;20.50;;;7.87;;
70866;SDS011;58487;53.474;49.470;2023-03-23T02:35:56;21.90;;;8.05;;
70866;SDS011;58487;53.474;49.470;2023-03-23T02:38:38;25.35;;;7.35;;
70866;SDS011;58487;53.474;49.470;2023-03-23T02:41:17;21.73;;;7.67;;
70866;SDS011;58487;53.474;49.470;2023-03-23T02:43:46;18.13;;;8.50;;
70866;SDS011;58487;53.474;49.470;2023-03-23T02:46:14;22.40;;;10.15;;
70866;SDS011;58487;53.474;49.470;2023-03-23T02:48:42;26.17;;;11.20;;
70866;SDS011;58487;53.474;49.470;2023-03-23T02:51:10;24.35;;;9.70;;
70866;SDS011;58487;53.474;49.470;2023-03-23T02:53:38;23.20;;;8.17;;
70866;SDS011;58487;53.474;49.470;2023-03-23T02:56:07;22.65;;;9.15;;
70866;SDS011;58487;53.474;49.470;2023-03-23T02:58:35;23.83;;;9.18;;
70866;SDS011;58487;53.474;49.470;2023-03-23T03:01:14;20.80;;;9.32;;
70866;SDS011;58487;53.474;49.470;2023-03-23T03:04:35;21.90;;;8.98;;
70866;SDS011;58487;53.474;49.470;2023-03-23T03:07:00;18.87;;;8.53;;
70866;SDS011;58487;53.474;49.470;2023-03-23T03:15:12;20.92;;;8.48;;
70866;SDS011;58487;53.474;49.470;2023-03-23T03:17:52;19.55;;;8.23;;
70866;SDS011;58487;53.474;49.470;2023-03-23T03:20:33;19.03;;;8.27;;
70866;SDS011;58487;53.474;49.470;2023-03-23T03:23:04;18.90;;;8.05;;
70866;SDS011;58487;53.474;49.470;2023-03-23T03:25:33;21.70;;;8.38;;
70866;SDS011;58487;53.474;49.470;2023-03-23T03:27:59;18.88;;;8.30;;
70866;SDS011;58487;53.474;49.470;2023-03-23T03:30:28;18.92;;;8.73;;
70866;SDS011;58487;53.474;49.470;2023-03-23T03:32:58;22.23;;;9.30;;
70866;SDS011;58487;53.474;49.470;2023-03-23T03:35:25;20.23;;;8.43;;
70866;SDS011;58487;53.474;49.470;2023-03-23T03:37:52;19.23;;;8.65;;
70866;SDS011;58487;53.474;49.470;2023-03-23T03:40:20;20.17;;;8.25;;
70866;SDS011;58487;53.474;49.470;2023-03-23T03:42:47;20.23;;;8.20;;
70866;SDS011;58487;53.474;49.470;2023-03-23T03:45:17;25.17;;;8.80;;
70866;SDS011;58487;53.474;49.470;2023-03-23T03:47:44;20.38;;;8.60;;
70866;SDS011;58487;53.474;49.470;2023-03-23T03:50:11;18.58;;;8.55;;
70866;SDS011;58487;53.474;49.470;2023-03-23T03:52:37;17.50;;;7.43;;
70866;SDS011;58487;53.474;49.470;2023-03-23T03:55:06;17.08;;;6.97;;
70866;SDS011;58487;53.474;49.470;2023-03-23T03:57:34;18.40;;;8.00;;
70866;SDS011;58487;53.474;49.470;2023-03-23T04:00:00;19.98;;;8.00;;
70866;SDS011;58487;53.474;49.470;2023-03-23T04:02:38;18.42;;;7.70;;
70866;SDS011;58487;53.474;49.470;2023-03-23T04:05:04;18.70;;;7.55;;
70866;SDS011;58487;53.474;49.470;2023-03-23T04:07:30;18.38;;;7.85;;
70866;SDS011;58487;53.474;49.470;2023-03-23T04:09:56;17.00;;;7.40;;
70866;SDS011;58487;53.474;49.470;2023-03-23T04:12:23;21.42;;;9.10;;
70866;SDS011;58487;53.474;49.470;2023-03-23T04:14:49;21.13;;;9.20;;
70866;SDS011;58487;53.474;49.470;2023-03-23T04:17:14;21.95;;;8.82;;
70866;SDS011;58487;53.474;49.470;2023-03-23T04:19:42;20.30;;;8.97;;
70866;SDS011;58487;53.474;49.470;2023-03-23T04:22:09;20.55;;;9.35;;
70866;SDS011;58487;53.474;49.470;2023-03-23T04:24:35;24.50;;;9.98;;
70866;SDS011;58487;53.474;49.470;2023-03-23T04:27:02;26.13;;;10.52;;
70866;SDS011;58487;53.474;49.470;2023-03-23T04:29:28;21.52;;;9.60;;
70866;SDS011;58487;53.474;49.470;2023-03-23T04:31:55;25.30;;;9.10;;
70866;SDS011;58487;53.474;49.470;2023-03-23T04:34:22;21.85;;;8.95;;
70866;SDS011;58487;53.474;49.470;2023-03-23T04:36:51;24.27;;;9.00;;
70866;SDS011;58487;53.474;49.470;2023-03-23T04:39:17;20.00;;;8.70;;
70866;SDS011;58487;53.474;49.470;2023-03-23T04:41:43;21.83;;;9.38;;
70866;SDS011;58487;53.474;49.470;2023-03-23T04:44:09;20.83;;;8.57;;
70866;SDS011;58487;53.474;49.470;2023-03-23T04:46:35;18.67;;;8.60;;
70866;SDS011;58487;53.474;49.470;2023-03-23T04:49:02;22.38;;;9.00;;
70866;SDS011;58487;53.474;49.470;2023-03-23T04:51:28;21.75;;;8.75;;
70866;SDS011;58487;53.474;49.470;2023-03-23T04:53:56;18.70;;;7.87;;
70866;SDS011;58487;53.474;49.470;2023-03-23T04:56:22;22.20;;;8.80;;
70866;SDS011;58487;53.474;49.470;2023-03-23T04:58:48;19.17;;;7.70;;
70866;SDS011;58487;53.474;49.470;2023-03-23T05:01:15;20.17;;;9.10;;
70866;SDS011;58487;53.474;49.470;2023-03-23T05:03:43;17.13;;;7.53;;
70866;SDS011;58487;53.474;49.470;2023-03-23T05:06:09;19.33;;;8.50;;
70866;SDS011;58487;53.474;49.470;2023-03-23T05:08:36;21.58;;;9.00;;
70866;SDS011;58487;53.474;49.470;2023-03-23T05:11:05;224.15;;;19.95;;
70866;SDS011;58487;53.474;49.470;2023-03-23T05:13:32;47.05;;;8.25;;
70866;SDS011;58487;53.474;49.470;2023-03-23T05:15:58;67.40;;;9.98;;
70866;SDS011;58487;53.474;49.470;2023-03-23T05:18:28;14.97;;;6.33;;
70866;SDS011;58487;53.474;49.470;2023-03-23T05:20:54;14.90;;;6.43;;
70866;SDS011;58487;53.474;49.470;2023-03-23T05:23:20;13.50;;;6.15;;
70866;SDS011;58487;53.474;49.470;2023-03-23T05:25:53;31.10;;;9.90;;
70866;SDS011;58487;53.474;49.470;2023-03-23T05:28:21;13.77;;;6.20;;
70866;SDS011;58487;53.474;49.470;2023-03-23T05:30:47;14.53;;;6.10;;
70866;SDS011;58487;53.474;49.470;2023-03-23T05:33:14;16.35;;;7.07;;
70866;SDS011;58487;53.474;49.470;2023-03-23T05:35:40;12.73;;;6.78;;
70866;SDS011;58487;53.474;49.470;2023-03-23T05:38:07;16.15;;;6.57;;
70866;SDS011;58487;53.474;49.470;2023-03-23T05:40:32;15.05;;;6.20;;
70866;SDS011;58487;53.474;49.470;2023-03-23T05:42:59;13.53;;;5.80;;
70866;SDS011;58487;53.474;49.470;2023-03-23T05:45:25;12.18;;;5.80;;
70866;SDS011;58487;53.474;49.470;2023-03-23T05:47:51;17.58;;;6.15;;
70866;SDS011;58487;53.474;49.470;2023-03-23T05:50:20;12.18;;;5.72;;
70866;SDS011;58487;53.474;49.470;2023-03-23T05:52:46;12.60;;;5.13;;
70866;SDS011;58487;53.474;49.470;2023-03-23T05:55:12;10.00;;;5.00;;
70866;SDS011;58487;53.474;49.470;2023-03-23T05:57:40;10.35;;;4.93;;
70866;SDS011;58487;53.474;49.470;2023-03-23T06:00:06;10.98;;;5.50;;
70866;SDS011;58487;53.474;49.470;2023-03-23T06:02:37;13.77;;;5.57;;
70866;SDS011;58487;53.474;49.470;2023-03-23T06:05:03;12.50;;;5.53;;
70866;SDS011;58487;53.474;49.470;2023-03-23T06:07:29;13.57;;;5.53;;
70866;SDS011;58487;53.474;49.470;2023-03-23T06:09:56;16.67;;;6.22;;
70866;SDS011;58487;53.474;49.470;2023-03-23T06:12:22;15.02;;;6.05;;
70866;SDS011;58487;53.474;49.470;2023-03-23T06:14:49;15.70;;;5.75;;
70866;SDS011;58487;53.474;49.470;2023-03-23T06:17:15;12.65;;;5.70;;
70866;SDS011;58487;53.474;49.470;2023-03-23T06:19:42;11.90;;;5.50;;
70866;SDS011;58487;53.474;49.470;2023-03-23T06:22:09;12.35;;;5.60;;
70866;SDS011;58487;53.474;49.470;2023-03-23T06:24:35;13.60;;;5.97;;
70866;SDS011;58487;53.474;49.470;2023-03-23T06:27:01;12.02;;;5.88;;
70866;SDS011;58487;53.474;49.470;2023-03-23T06:29:28;11.93;;;6.10;;
70866;SDS011;58487;53.474;49.470;2023-03-23T06:31:55;13.70;;;6.00;;
70866;SDS011;58487;53.474;49.470;2023-03-23T06:34:24;12.00;;;5.72;;
70866;SDS011;58487;53.474;49.470;2023-03-23T06:36:50;14.77;;;6.45;;
70866;SDS011;58487;53.474;49.470;2023-03-23T06:39:16;15.85;;;5.90;;
70866;SDS011;58487;53.474;49.470;2023-03-23T06:41:42;14.43;;;6.40;;
70866;SDS011;58487;53.474;49.470;2023-03-23T06:44:08;13.67;;;6.13;;
70866;SDS011;58487;53.474;49.470;2023-03-23T06:46:38;14.52;;;6.40;;
70866;SDS011;58487;53.474;49.470;2023-03-23T06:49:05;15.32;;;6.13;;
70866;SDS011;58487;53.474;49.470;2023-03-23T06:51:32;17.48;;;7.88;;
70866;SDS011;58487;53.474;49.470;2023-03-23T06:53:58;19.27;;;7.13;;
70866;SDS011;58487;53.474;49.470;2023-03-23T06:56:24;12.53;;;5.93;;
70866;SDS011;58487;53.474;49.470;2023-03-23T06:58:51;13.70;;;6.68;;
70866;SDS011;58487;53.474;49.470;2023-03-23T07:01:17;13.18;;;6.53;;
70866;SDS011;58487;53.474;49.470;2023-03-23T07:03:44;13.70;;;6.13;;
70866;SDS011;58487;53.474;49.470;2023-03-23T07:06:11;13.90;;;6.65;;
70866;SDS011;58487;53.474;49.470;2023-03-23T07:08:37;13.13;;;6.43;;
70866;SDS011;58487;53.474;49.470;2023-03-23T07:11:03;15.40;;;6.32;;
70866;SDS011;58487;53.474;49.470;2023-03-23T07:13:30;18.10;;;7.78;;
70866;SDS011;58487;53.474;49.470;2023-03-23T07:15:56;12.18;;;5.63;;
70866;SDS011;58487;53.474;49.470;2023-03-23T07:18:23;11.75;;;5.70;;
70866;SDS011;58487;53.474;49.470;2023-03-23T07:20:49;16.10;;;5.80;;
70866;SDS011;58487;53.474;49.470;2023-03-23T07:23:17;17.67;;;6.20;;
70866;SDS011;58487;53.474;49.470;2023-03-23T07:25:44;16.35;;;6.50;;
70866;SDS011;58487;53.474;49.470;2023-03-23T07:28:14;14.65;;;6.93;;
70866;SDS011;58487;53.474;49.470;2023-03-23T07:30:41;15.73;;;6.22;;
70866;SDS011;58487;53.474;49.470;2023-03-23T07:33:07;10.87;;;5.50;;
70866;SDS011;58487;53.474;49.470;2023-03-23T07:35:34;9.60;;;4.70;;
70866;SDS011;58487;53.474;49.470;2023-03-23T07:38:01;9.60;;;4.40;;
70866;SDS011;58487;53.474;49.470;2023-03-23T07:40:27;11.32;;;5.45;;
70866;SDS011;58487;53.474;49.470;2023-03-23T07:42:55;7.50;;;3.47;;
70866;SDS011;58487;53.474;49.470;2023-03-23T07:45:22;10.20;;;3.87;;
70866;SDS011;58487;53.474;49.470;2023-03-23T07:47:49;7.80;;;3.50;;
70866;SDS011;58487;53.474;49.470;2023-03-23T07:50:15;8.50;;;3.50;;
70866;SDS011;58487;53.474;49.470;2023-03-23T07:52:42;8.20;;;3.45;;
70866;SDS011;58487;53.474;49.470;2023-03-23T07:55:09;6.82;;;3.15;;
70866;SDS011;58487;53.474;49.470;2023-03-23T07:57:43;8.47;;;4.40;;
70866;SDS011;58487;53.474;49.470;2023-03-23T08:00:10;7.53;;;3.90;;
70866;SDS011;58487;53.474;49.470;2023-03-23T08:02:45;9.35;;;3.83;;
70866;SDS011;58487;53.474;49.470;2023-03-23T08:05:12;8.90;;;4.28;;
70866;SDS011;58487;53.474;49.470;2023-03-23T08:07:38;12.27;;;5.32;;
70866;SDS011;58487;53.474;49.470;2023-03-23T08:10:05;12.03;;;5.20;;
70866;SDS011;58487;53.474;49.470;2023-03-23T08:12:36;10.32;;;4.30;;
70866;SDS011;58487;53.474;49.470;2023-03-23T08:15:07;9.25;;;4.57;;
70866;SDS011;58487;53.474;49.470;2023-03-23T08:17:38;14.63;;;6.18;;
70866;SDS011;58487;53.474;49.470;2023-03-23T08:20:05;11.73;;;5.18;;
70866;SDS011;58487;53.474;49.470;2023-03-23T08:22:38;12.43;;;4.33;;
70866;SDS011;58487;53.474;49.470;2023-03-23T08:25:06;11.85;;;4.60;;
70866;SDS011;58487;53.474;49.470;2023-03-23T08:27:34;14.75;;;4.68;;
70866;SDS011;58487;53.474;49.470;2023-03-23T08:30:00;9.00;;;4.57;;
70866;SDS011;58487;53.474;49.470;2023-03-23T08:32:26;10.47;;;4.90;;
70866;SDS011;58487;53.474;49.470;2023-03-23T08:34:52;7.45;;;3.55;;
70866;SDS011;58487;53.474;49.470;2023-03-23T08:37:18;7.72;;;3.17;;
70866;SDS011;58487;53.474;49.470;2023-03-23T08:39:44;8.57;;;3.70;;
70866;SDS011;58487;53.474;49.470;2023-03-23T08:42:11;8.38;;;4.20;;
70866;SDS011;58487;53.474;49.470;2023-03-23T08:44:37;8.40;;;3.67;;
70866;SDS011;58487;53.474;49.470;2023-03-23T08:47:03;12.40;;;3.85;;
70866;SDS011;58487;53.474;49.470;2023-03-23T08:49:31;8.05;;;3.80;;
70866;SDS011;58487;53.474;49.470;2023-03-23T08:52:00;6.93;;;3.00;;
70866;SDS011;58487;53.474;49.470;2023-03-23T08:54:27;6.57;;;3.10;;
70866;SDS011;58487;53.474;49.470;2023-03-23T08:56:58;5.90;;;3.10;;
70866;SDS011;58487;53.474;49.470;2023-03-23T08:59:26;6.32;;;3.00;;
70866;SDS011;58487;53.474;49.470;2023-03-23T09:01:52;6.40;;;2.88;;
70866;SDS011;58487;53.474;49.470;2023-03-23T09:04:18;7.10;;;3.08;;
70866;SDS011;58487;53.474;49.470;2023-03-23T09:06:45;7.45;;;2.90;;
70866;SDS011;58487;53.474;49.470;2023-03-23T09:09:11;6.10;;;3.10;;
70866;SDS011;58487;53.474;49.470;2023-03-23T09:11:37;6.30;;;3.28;;
70866;SDS011;58487;53.474;49.470;2023-03-23T09:14:05;6.40;;;3.58;;
70866;SDS011;58487;53.474;49.470;2023-03-23T09:16:34;6.90;;;3.47;;
70866;SDS011;58487;53.474;49.470;2023-03-23T09:19:00;6.53;;;3.08;;
70866;SDS011;58487;53.474;49.470;2023-03-23T09:21:27;7.20;;;3.30;;
70866;SDS011;58487;53.474;49.470;2023-03-23T09:23:53;8.07;;;3.40;;
70866;SDS011;58487;53.474;49.470;2023-03-23T09:26:26;8.18;;;3.20;;
70866;SDS011;58487;53.474;49.470;2023-03-23T09:28:53;6.80;;;3.22;;
70866;SDS011;58487;53.474;49.470;2023-03-23T09:31:22;6.95;;;3.60;;
70866;SDS011;58487;53.474;49.470;2023-03-23T09:33:49;6.63;;;3.60;;
70866;SDS011;58487;53.474;49.470;2023-03-23T09:36:18;8.48;;;3.80;;
70866;SDS011;58487;53.474;49.470;2023-03-23T09:38:47;6.55;;;3.70;;
70866;SDS011;58487;53.474;49.470;2023-03-23T09:44:10;8.07;;;3.92;;
70866;SDS011;58487;53.474;49.470;2023-03-23T09:52:50;6.50;;;3.63;;
70866;SDS011;58487;53.474;49.470;2023-03-23T09:55:19;7.32;;;3.80;;
70866;SDS011;58487;53.474;49.470;2023-03-23T09:57:54;11.07;;;3.67;;
70866;SDS011;58487;53.474;49.470;2023-03-23T10:05:48;7.53;;;3.58;;
70866;SDS011;58487;53.474;49.470;2023-03-23T10:08:18;8.23;;;4.50;;
70866;SDS011;58487;53.474;49.470;2023-03-23T10:16:19;7.82;;;4.18;;
70866;SDS011;58487;53.474;49.470;2023-03-23T10:21:27;9.43;;;4.40;;
70866;SDS011;58487;53.474;49.470;2023-03-23T10:24:00;8.80;;;4.00;;
70866;SDS011;58487;53.474;49.470;2023-03-23T10:26:37;8.17;;;3.70;;
70866;SDS011;58487;53.474;49.470;2023-03-23T10:32:34;7.63;;;4.38;;
70866;SDS011;58487;53.474;49.470;2023-03-23T10:35:13;9.38;;;6.22;;
70866;SDS011;58487;53.474;49.470;2023-03-23T10:37:48;9.85;;;5.30;;
70866;SDS011;58487;53.474;49.470;2023-03-23T10:40:25;9.13;;;4.83;;
70866;SDS011;58487;53.474;49.470;2023-03-23T10:42:53;10.30;;;4.95;;
70866;SDS011;58487;53.474;49.470;2023-03-23T10:47:49;9.13;;;5.10;;
70866;SDS011;58487;53.474;49.470;2023-03-23T10:50:22;9.70;;;5.05;;
70866;SDS011;58487;53.474;49.470;2023-03-23T10:52:55;11.57;;;5.50;;
70866;SDS011;58487;53.474;49.470;2023-03-23T10:55:24;10.80;;;5.15;;
70866;SDS011;58487;53.474;49.470;2023-03-23T10:58:02;9.73;;;5.20;;
70866;SDS011;58487;53.474;49.470;2023-03-23T11:00:30;9.63;;;5.35;;
70866;SDS011;58487;53.474;49.470;2023-03-23T11:03:04;9.95;;;5.38;;
70866;SDS011;58487;53.474;49.470;2023-03-23T11:05:36;10.13;;;5.97;;
70866;SDS011;58487;53.474;49.470;2023-03-23T11:08:24;11.50;;;5.82;;
70866;SDS011;58487;53.474;49.470;2023-03-23T11:10:55;10.52;;;5.80;;
70866;SDS011;58487;53.474;49.470;2023-03-23T11:13:33;9.52;;;5.78;;
70866;SDS011;58487;53.474;49.470;2023-03-23T11:16:00;9.82;;;6.05;;
70866;SDS011;58487;53.474;49.470;2023-03-23T11:18:34;10.00;;;5.97;;
70866;SDS011;58487;53.474;49.470;2023-03-23T11:21:12;19.40;;;6.97;;
70866;SDS011;58487;53.474;49.470;2023-03-23T11:23:40;12.77;;;6.75;;
70866;SDS011;58487;53.474;49.470;2023-03-23T11:26:16;12.07;;;6.80;;
70866;SDS011;58487;53.474;49.470;2023-03-23T11:28:53;12.50;;;6.95;;
70866;SDS011;58487;53.474;49.470;2023-03-23T11:31:22;10.63;;;7.40;;
70866;SDS011;58487;53.474;49.470;2023-03-23T11:33:56;11.48;;;6.82;;
70866;SDS011;58487;53.474;49.470;2023-03-23T11:36:29;11.32;;;6.72;;
70866;SDS011;58487;53.474;49.470;2023-03-23T11:38:57;11.27;;;6.70;;
70866;SDS011;58487;53.474;49.470;2023-03-23T11:41:29;15.18;;;7.25;;
70866;SDS011;58487;53.474;49.470;2023-03-23T11:44:01;14.30;;;8.20;;
70866;SDS011;58487;53.474;49.470;2023-03-23T11:46:42;10.55;;;6.72;;
70866;SDS011;58487;53.474;49.470;2023-03-23T11:52:29;13.55;;;6.93;;
70866;SDS011;58487;53.474;49.470;2023-03-23T11:55:12;14.20;;;7.18;;
70866;SDS011;58487;53.474;49.470;2023-03-23T11:57:47;12.27;;;6.83;;
70866;SDS011;58487;53.474;49.470;2023-03-23T12:00:17;13.18;;;6.50;;
70866;SDS011;58487;53.474;49.470;2023-03-23T12:02:51;12.30;;;6.95;;
70866;SDS011;58487;53.474;49.470;2023-03-23T12:05:32;12.73;;;6.72;;
70866;SDS011;58487;53.474;49.470;2023-03-23T12:08:07;12.38;;;7.75;;
70866;SDS011;58487;53.474;49.470;2023-03-23T12:21:49;14.82;;;7.72;;
70866;SDS011;58487;53.474;49.470;2023-03-23T12:24:31;13.90;;;7.50;;
70866;SDS011;58487;53.474;49.470;2023-03-23T12:32:51;16.67;;;7.47;;
70866;SDS011;58487;53.474;49.470;2023-03-23T12:35:37;15.55;;;7.07;;
70866;SDS011;58487;53.474;49.470;2023-03-23T12:38:32;13.00;;;6.77;;
70866;SDS011;58487;53.474;49.470;2023-03-23T12:49:34;12.50;;;6.60;;
70866;SDS011;58487;53.474;49.470;2023-03-23T12:52:17;12.50;;;7.00;;
70866;SDS011;58487;53.474;49.470;2023-03-23T13:03:56;12.68;;;7.18;;
70866;SDS011;58487;53.474;49.470;2023-03-23T13:06:42;12.93;;;6.50;;
70866;SDS011;58487;53.474;49.470;2023-03-23T13:11:42;15.52;;;7.60;;
70866;SDS011;58487;53.474;49.470;2023-03-23T13:14:13;14.40;;;7.45;;
70866;SDS011;58487;53.474;49.470;2023-03-23T13:16:44;13.93;;;6.90;;
70866;SDS011;58487;53.474;49.470;2023-03-23T13:19:27;14.43;;;7.27;;
70866;SDS011;58487;53.474;49.470;2023-03-23T13:24:24;16.55;;;7.97;;
70866;SDS011;58487;53.474;49.470;2023-03-23T13:26:54;16.83;;;7.82;;
70866;SDS011;58487;53.474;49.470;2023-03-23T13:29:23;16.63;;;8.20;;
70866;SDS011;58487;53.474;49.470;2023-03-23T13:31:50;15.07;;;7.77;;
70866;SDS011;58487;53.474;49.470;2023-03-23T13:37:00;14.77;;;6.97;;
70866;SDS011;58487;53.474;49.470;2023-03-23T13:42:05;17.27;;;7.72;;
70866;SDS011;58487;53.474;49.470;2023-03-23T13:44:42;14.60;;;8.00;;
70866;SDS011;58487;53.474;49.470;2023-03-23T13:49:54;17.58;;;8.00;;
70866;SDS011;58487;53.474;49.470;2023-03-23T13:57:57;16.80;;;8.70;;
70866;SDS011;58487;53.474;49.470;2023-03-23T14:08:37;18.00;;;8.68;;
70866;SDS011;58487;53.474;49.470;2023-03-23T14:11:22;16.30;;;7.97;;
70866;SDS011;58487;53.474;49.470;2023-03-23T14:13:58;18.95;;;9.52;;
70866;SDS011;58487;53.474;49.470;2023-03-23T14:16:43;16.65;;;8.35;;
70866;SDS011;58487;53.474;49.470;2023-03-23T14:19:15;17.80;;;8.63;;
70866;SDS011;58487;53.474;49.470;2023-03-23T14:21:51;16.17;;;7.90;;
70866;SDS011;58487;53.474;49.470;2023-03-23T14:24:22;16.53;;;8.40;;
70866;SDS011;58487;53.474;49.470;2023-03-23T14:26:51;19.20;;;8.70;;
70866;SDS011;58487;53.474;49.470;2023-03-23T14:29:19;16.02;;;8.30;;
70866;SDS011;58487;53.474;49.470;2023-03-23T14:31:54;20.02;;;9.05;;
70866;SDS011;58487;53.474;49.470;2023-03-23T14:34:22;21.85;;;9.70;;
70866;SDS011;58487;53.474;49.470;2023-03-23T14:36:51;20.73;;;7.73;;
70866;SDS011;58487;53.474;49.470;2023-03-23T14:39:28;20.45;;;9.77;;
70866;SDS011;58487;53.474;49.470;2023-03-23T14:42:04;19.45;;;9.77;;
70866;SDS011;58487;53.474;49.470;2023-03-23T14:44:38;19.73;;;11.93;;
70866;SDS011;58487;53.474;49.470;2023-03-23T14:47:23;29.38;;;13.20;;
70866;SDS011;58487;53.474;49.470;2023-03-23T14:50:04;21.90;;;12.00;;
70866;SDS011;58487;53.474;49.470;2023-03-23T14:52:33;22.70;;;11.95;;
70866;SDS011;58487;53.474;49.470;2023-03-23T14:55:14;22.05;;;10.70;;
70866;SDS011;58487;53.474;49.470;2023-03-23T14:57:43;22.92;;;12.15;;
70866;SDS011;58487;53.474;49.470;2023-03-23T15:03:06;17.90;;;8.37;;
70866;SDS011;58487;53.474;49.470;2023-03-23T15:05:41;19.80;;;8.57;;
70866;SDS011;58487;53.474;49.470;2023-03-23T15:08:14;15.98;;;7.72;;
70866;SDS011;58487;53.474;49.470;2023-03-23T15:10:54;15.25;;;7.38;;
70866;SDS011;58487;53.474;49.470;2023-03-23T15:13:27;14.02;;;7.13;;
70866;SDS011;58487;53.474;49.470;2023-03-23T15:16:01;15.67;;;7.77;;
70866;SDS011;58487;53.474;49.470;2023-03-23T15:18:36;14.00;;;7.40;;
70866;SDS011;58487;53.474;49.470;2023-03-23T15:21:11;16.85;;;7.72;;
70866;SDS011;58487;53.474;49.470;2023-03-23T15:23:46;15.32;;;7.72;;
70866;SDS011;58487;53.474;49.470;2023-03-23T15:26:32;15.55;;;7.53;;
70866;SDS011;58487;53.474;49.470;2023-03-23T15:29:20;15.50;;;7.77;;
70866;SDS011;58487;53.474;49.470;2023-03-23T15:31:53;15.25;;;7.40;;
70866;SDS011;58487;53.474;49.470;2023-03-23T15:37:05;17.42;;;9.20;;
70866;SDS011;58487;53.474;49.470;2023-03-23T15:39:44;15.15;;;7.45;;
70866;SDS011;58487;53.474;49.470;2023-03-23T15:42:24;14.57;;;7.33;;
70866;SDS011;58487;53.474;49.470;2023-03-23T15:44:57;15.50;;;7.28;;
70866;SDS011;58487;53.474;49.470;2023-03-23T15:50:14;16.30;;;7.80;;
70866;SDS011;58487;53.474;49.470;2023-03-23T15:52:53;16.17;;;7.57;;
70866;SDS011;58487;53.474;49.470;2023-03-23T15:55:26;17.67;;;7.80;;
70866;SDS011;58487;53.474;49.470;2023-03-23T15:58:01;17.20;;;7.93;;
70866;SDS011;58487;53.474;49.470;2023-03-23T16:00:35;17.13;;;7.72;;
70866;SDS011;58487;53.474;49.470;2023-03-23T16:03:04;16.45;;;7.78;;
70866;SDS011;58487;53.474;49.470;2023-03-23T16:05:32;16.27;;;7.43;;
70866;SDS011;58487;53.474;49.470;2023-03-23T16:07:59;15.45;;;6.72;;
70866;SDS011;58487;53.474;49.470;2023-03-23T16:10:26;15.82;;;6.85;;
70866;SDS011;58487;53.474;49.470;2023-03-23T16:12:53;13.95;;;6.50;;
70866;SDS011;58487;53.474;49.470;2023-03-23T16:15:19;13.85;;;7.22;;
70866;SDS011;58487;53.474;49.470;2023-03-23T16:17:46;15.27;;;6.70;;
70866;SDS011;58487;53.474;49.470;2023-03-23T16:22:43;14.88;;;6.80;;
70866;SDS011;58487;53.474;49.470;2023-03-23T16:25:10;13.13;;;6.40;;
70866;SDS011;58487;53.474;49.470;2023-03-23T16:27:37;15.80;;;7.20;;
70866;SDS011;58487;53.474;49.470;2023-03-23T16:32:44;14.10;;;6.80;;
70866;SDS011;58487;53.474;49.470;2023-03-23T16:35:11;16.85;;;8.13;;
70866;SDS011;58487;53.474;49.470;2023-03-23T16:37:42;17.38;;;8.00;;
70866;SDS011;58487;53.474;49.470;2023-03-23T16:40:19;15.95;;;7.57;;
70866;SDS011;58487;53.474;49.470;2023-03-23T16:42:46;13.93;;;7.50;;
70866;SDS011;58487;53.474;49.470;2023-03-23T16:45:13;15.05;;;7.32;;
70866;SDS011;58487;53.474;49.470;2023-03-23T16:47:40;14.85;;;7.95;;
70866;SDS011;58487;53.474;49.470;2023-03-23T16:50:08;15.57;;;8.15;;
70866;SDS011;58487;53.474;49.470;2023-03-23T16:52:40;12.90;;;6.60;;
70866;SDS011;58487;53.474;49.470;2023-03-23T16:55:09;12.90;;;6.03;;